Grasshopper Junction, Arizona
Current Conditions -  °F | °C
As of 8:51 PM on Thursday 27 Nov 2014 (Local Time) from KIGM Reporting Station
Clear Clear  
Wind Chill:   Ceiling: Unl
Heat Index:   Visibility: NA
Dew Point: -9°   Wind: 3mph
Humidity: 34%   Direction: 130°SE
Pressure: 30.2"   Gusts: NA
Location:  35.2036°N, 114.02°W
Report Text: KIGM 280351Z AUTO 13003KT CLR 06/M09 A3020 RMK AO2 SLP195 T00611089 $
Loading
Personal Weather Stations






























Interactive Weather Map New forecast layout! Learn more

10-Day Weather Forecast

Advertisements
Track Severe Weather on mobile